createdAt,value
2022-11-27T00:00:26.925Z,3.96
2022-11-27T00:05:28.782Z,3.94
2022-11-27T00:10:30.630Z,3.95
2022-11-27T00:15:32.477Z,3.95
2022-11-27T00:20:34.481Z,3.97
2022-11-27T00:25:36.350Z,3.96
2022-11-27T00:30:39.721Z,3.99
2022-11-27T00:35:41.629Z,4.02
2022-11-27T00:40:43.552Z,4.00
2022-11-27T00:45:49.961Z,4.06
2022-11-27T00:50:51.743Z,4.06
2022-11-27T00:55:54.924Z,4.08
2022-11-27T01:00:59.579Z,4.09
2022-11-27T01:06:06.899Z,4.08
2022-11-27T01:11:14.812Z,4.08
2022-11-27T01:16:24.390Z,4.04
2022-11-27T01:21:29.398Z,4.03
2022-11-27T01:26:31.617Z,4.02
2022-11-27T01:31:34.640Z,4.02
2022-11-27T01:36:36.788Z,4.05
2022-11-27T01:41:41.216Z,4.06
2022-11-27T01:46:46.866Z,4.07
2022-11-27T01:51:59.535Z,3.99
2022-11-27T01:57:08.202Z,3.89
2022-11-27T02:02:10.062Z,3.84
2022-11-27T02:07:12.022Z,3.81
2022-11-27T02:12:27.606Z,3.86
2022-11-27T02:18:10.377Z,3.94
2022-11-27T02:23:49.464Z,4.00
2022-11-27T02:29:19.752Z,4.02
2022-11-27T02:34:27.257Z,4.05
2022-11-27T02:39:38.746Z,4.04
2022-11-27T02:44:46.491Z,4.04
2022-11-27T02:49:51.223Z,4.06
2022-11-27T02:54:57.721Z,4.06
2022-11-27T03:00:01.398Z,4.08
2022-11-27T03:05:05.617Z,4.08
2022-11-27T03:10:24.236Z,4.09
2022-11-27T03:15:35.088Z,4.09
2022-11-27T03:20:41.263Z,4.09
2022-11-27T03:25:43.109Z,4.08
2022-11-27T03:30:44.960Z,4.05
2022-11-27T03:35:46.808Z,4.01
2022-11-27T03:41:05.899Z,3.99
2022-11-27T03:46:23.723Z,3.96
2022-11-27T03:51:39.257Z,3.93
2022-11-27T03:56:56.713Z,3.92
2022-11-27T04:01:58.682Z,3.94
2022-11-27T04:07:00.636Z,3.96
2022-11-27T04:12:02.526Z,3.94
2022-11-27T04:17:04.347Z,3.92
2022-11-27T04:22:06.163Z,3.89
2022-11-27T04:27:08.014Z,3.86
2022-11-27T04:32:10.359Z,3.83
2022-11-27T04:37:12.313Z,3.82
2022-11-27T04:42:14.102Z,3.81
2022-11-27T04:47:16.142Z,3.79
2022-11-27T04:52:18.030Z,3.76
2022-11-27T04:57:19.845Z,3.71
2022-11-27T05:02:21.975Z,3.67
2022-11-27T05:07:24.027Z,3.64
2022-11-27T05:12:25.874Z,3.61
2022-11-27T05:17:27.714Z,3.58
2022-11-27T05:22:29.672Z,3.55
2022-11-27T05:27:31.484Z,3.55
2022-11-27T05:32:33.280Z,3.56
2022-11-27T05:37:35.161Z,3.59
2022-11-27T05:42:37.026Z,3.58
2022-11-27T05:47:38.859Z,3.55
2022-11-27T05:52:40.725Z,3.55
2022-11-27T05:57:42.593Z,3.58
2022-11-27T06:02:44.502Z,3.60
2022-11-27T06:07:46.610Z,3.63
2022-11-27T06:12:48.458Z,3.64
2022-11-27T06:17:50.390Z,3.64
2022-11-27T06:22:52.235Z,3.58
2022-11-27T06:27:54.109Z,3.53
2022-11-27T06:32:55.901Z,3.50
2022-11-27T06:37:57.750Z,3.47
2022-11-27T06:42:59.559Z,3.47
2022-11-27T06:48:01.621Z,3.51
2022-11-27T06:53:03.450Z,3.55
2022-11-27T06:58:05.237Z,3.57
2022-11-27T07:03:07.085Z,3.59
2022-11-27T07:08:09.049Z,3.65
2022-11-27T07:13:10.907Z,3.67
2022-11-27T07:18:12.780Z,3.72
2022-11-27T07:23:14.601Z,3.73
2022-11-27T07:28:19.020Z,3.79
2022-11-27T07:33:21.555Z,3.84
2022-11-27T07:38:23.331Z,3.87
2022-11-27T07:43:25.138Z,3.90
2022-11-27T07:48:27.022Z,3.97
2022-11-27T07:53:28.845Z,4.09
2022-11-27T07:58:30.672Z,4.14
2022-11-27T08:03:32.870Z,4.21
2022-11-27T08:08:34.854Z,4.30
2022-11-27T08:13:36.693Z,4.32
2022-11-27T08:18:38.725Z,4.26
2022-11-27T08:23:40.641Z,4.18
2022-11-27T08:28:43.253Z,4.12
2022-11-27T08:33:45.087Z,4.05
2022-11-27T08:38:47.353Z,3.98
2022-11-27T08:43:49.306Z,3.94
2022-11-27T08:48:51.118Z,3.94
2022-11-27T08:53:53.450Z,4.05
2022-11-27T08:58:56.058Z,4.13
2022-11-27T09:03:58.687Z,4.22
2022-11-27T09:09:01.842Z,4.31
2022-11-27T09:14:05.751Z,4.31
2022-11-27T09:19:07.529Z,4.28
2022-11-27T09:24:10.006Z,4.28
2022-11-27T09:29:11.840Z,4.34
2022-11-27T09:34:14.691Z,4.40
2022-11-27T09:39:17.043Z,4.45
2022-11-27T09:44:40.929Z,4.55
2022-11-27T09:49:50.482Z,4.65
2022-11-27T09:55:00.525Z,4.75
2022-11-27T10:00:17.010Z,4.87
2022-11-27T10:05:26.881Z,5.01
2022-11-27T10:11:04.144Z,5.15
2022-11-27T10:16:34.428Z,5.24
2022-11-27T10:21:55.159Z,5.27
2022-11-27T10:26:59.331Z,5.33
2022-11-27T10:32:54.545Z,5.40
2022-11-27T10:38:11.130Z,5.45
2022-11-27T10:43:25.223Z,5.54
2022-11-27T10:48:29.529Z,5.58
2022-11-27T10:53:37.329Z,5.60
2022-11-27T10:59:04.634Z,5.66
2022-11-27T11:04:31.290Z,5.72
2022-11-27T11:09:35.121Z,5.75
2022-11-27T11:14:36.909Z,5.80
2022-11-27T11:19:39.151Z,5.82
2022-11-27T11:24:46.888Z,5.90
2022-11-27T11:30:03.620Z,6.07
2022-11-27T11:35:23.384Z,6.13
2022-11-27T11:40:30.322Z,6.17
2022-11-27T11:45:34.961Z,6.29
2022-11-27T11:50:52.619Z,6.31
2022-11-27T11:56:09.780Z,6.20
2022-11-27T12:01:27.736Z,6.12
2022-11-27T12:06:42.718Z,5.94
2022-11-27T12:11:48.453Z,5.75
2022-11-27T12:17:03.623Z,5.66
2022-11-27T12:22:30.292Z,5.76
2022-11-27T12:28:19.374Z,5.89
2022-11-27T12:34:00.601Z,6.02
2022-11-27T12:39:31.676Z,6.08
2022-11-27T12:45:00.520Z,6.09
2022-11-27T12:50:28.271Z,6.12
2022-11-27T12:55:33.937Z,6.16
2022-11-27T13:00:40.977Z,6.16
2022-11-27T13:06:06.812Z,6.07
2022-11-27T13:11:13.843Z,5.93
2022-11-27T13:16:27.577Z,5.85
2022-11-27T13:21:33.752Z,5.76
2022-11-27T13:27:01.066Z,5.64
2022-11-27T13:32:05.003Z,5.44
2022-11-27T13:37:09.324Z,5.23
2022-11-27T13:42:11.069Z,5.06
2022-11-27T13:47:17.143Z,4.92
2022-11-27T13:52:21.272Z,4.81
2022-11-27T13:57:24.103Z,4.72
2022-11-27T14:02:40.372Z,4.65
2022-11-27T14:07:47.461Z,4.59
2022-11-27T14:12:58.410Z,4.55
2022-11-27T14:18:17.166Z,4.52
2022-11-27T14:23:49.213Z,4.52
2022-11-27T14:29:00.759Z,4.52
2022-11-27T14:34:23.412Z,4.52
2022-11-27T14:39:35.589Z,4.50
2022-11-27T14:44:37.531Z,4.45
2022-11-27T14:49:42.224Z,4.41
2022-11-27T14:54:44.996Z,4.38
2022-11-27T14:59:46.787Z,4.36
2022-11-27T15:04:48.640Z,4.33
2022-11-27T15:09:54.306Z,4.29
2022-11-27T15:15:04.935Z,4.26
2022-11-27T15:20:15.535Z,4.21
2022-11-27T15:25:41.243Z,4.18
2022-11-27T15:30:46.414Z,4.13
2022-11-27T15:35:52.646Z,4.08
2022-11-27T15:41:00.924Z,4.04
2022-11-27T15:46:06.367Z,4.03
2022-11-27T15:51:08.294Z,3.98
2022-11-27T15:56:10.124Z,3.94
2022-11-27T16:01:12.035Z,3.89
2022-11-27T16:06:13.878Z,3.88
2022-11-27T16:11:19.594Z,3.81
2022-11-27T16:16:22.072Z,3.74
2022-11-27T16:21:29.253Z,3.67
2022-11-27T16:26:32.566Z,3.60
2022-11-27T16:31:34.956Z,3.54
2022-11-27T16:36:42.353Z,3.52
2022-11-27T16:41:44.799Z,3.51
2022-11-27T16:46:48.831Z,3.49
2022-11-27T16:51:50.963Z,3.45
2022-11-27T16:56:53.658Z,3.35
2022-11-27T17:01:56.269Z,3.25
2022-11-27T17:06:58.105Z,3.15
2022-11-27T17:11:59.980Z,3.08
2022-11-27T17:17:03.193Z,3.02
2022-11-27T17:22:05.239Z,2.95
2022-11-27T17:27:09.881Z,2.89
2022-11-27T17:32:13.142Z,2.85
2022-11-27T17:37:15.309Z,2.80
2022-11-27T17:42:22.416Z,2.76
2022-11-27T17:47:24.876Z,2.70
2022-11-27T17:52:26.947Z,2.64
2022-11-27T17:57:28.793Z,2.56
2022-11-27T18:02:31.551Z,2.52
2022-11-27T18:07:33.561Z,2.54
2022-11-27T18:12:35.521Z,2.54
2022-11-27T18:17:37.851Z,2.56
2022-11-27T18:22:39.706Z,2.55
2022-11-27T18:27:41.674Z,2.55
2022-11-27T18:32:43.497Z,2.58
2022-11-27T18:37:45.362Z,2.60
2022-11-27T18:42:47.222Z,2.55
2022-11-27T18:47:49.085Z,2.55
2022-11-27T18:52:50.892Z,2.50
2022-11-27T18:57:53.356Z,2.46
2022-11-27T19:02:56.205Z,2.44
2022-11-27T19:07:59.723Z,2.35
2022-11-27T19:13:01.615Z,2.20
2022-11-27T19:18:03.619Z,2.10
2022-11-27T19:23:06.261Z,1.97
2022-11-27T19:28:11.125Z,1.87
2022-11-27T19:33:13.177Z,1.77
2022-11-27T19:38:15.004Z,1.67
2022-11-27T19:43:17.152Z,1.62
2022-11-27T19:48:23.109Z,1.55
2022-11-27T19:53:26.839Z,1.43
2022-11-27T19:58:33.228Z,1.26
2022-11-27T20:03:35.472Z,1.12
2022-11-27T20:08:38.787Z,1.02
2022-11-27T20:13:41.061Z,0.93
2022-11-27T20:18:43.623Z,0.84
2022-11-27T20:23:47.031Z,0.79
2022-11-27T20:28:50.089Z,0.71
2022-11-27T20:33:55.654Z,0.65
2022-11-27T20:38:58.601Z,0.58
2022-11-27T20:44:01.943Z,0.52
2022-11-27T20:49:05.197Z,0.43
2022-11-27T20:54:07.300Z,0.34
2022-11-27T20:59:09.751Z,0.23
2022-11-27T21:04:22.284Z,0.14
2022-11-27T21:09:24.878Z,0.05
2022-11-27T21:14:26.737Z,-0.05
2022-11-27T21:19:28.689Z,-0.12
2022-11-27T21:24:31.086Z,-0.16
2022-11-27T21:29:33.140Z,-0.18
2022-11-27T21:34:35.199Z,-0.22
2022-11-27T21:39:37.461Z,-0.24
2022-11-27T21:44:42.366Z,-0.29
2022-11-27T21:49:45.117Z,-0.33
2022-11-27T21:54:47.698Z,-0.39
2022-11-27T21:59:50.906Z,-0.44
2022-11-27T22:04:52.774Z,-0.45
2022-11-27T22:09:57.418Z,-0.46
2022-11-27T22:15:05.781Z,-0.45
2022-11-27T22:20:08.158Z,-0.45
2022-11-27T22:25:10.207Z,-0.48
2022-11-27T22:30:12.506Z,-0.49
2022-11-27T22:35:14.463Z,-0.50
2022-11-27T22:40:16.395Z,-0.55
2022-11-27T22:45:18.794Z,-0.60
2022-11-27T22:50:20.567Z,-0.63
2022-11-27T22:55:22.995Z,-0.64
2022-11-27T23:00:24.857Z,-0.66
2022-11-27T23:05:26.697Z,-0.66
2022-11-27T23:10:28.509Z,-0.67
2022-11-27T23:15:30.828Z,-0.70
2022-11-27T23:20:33.153Z,-0.73
2022-11-27T23:25:35.045Z,-0.76
2022-11-27T23:30:36.944Z,-0.79
2022-11-27T23:35:38.798Z,-0.82
2022-11-27T23:40:40.709Z,-0.86
2022-11-27T23:45:42.589Z,-0.91
2022-11-27T23:50:44.510Z,-0.95
2022-11-27T23:55:46.365Z,-0.98
